sensor_id;sensor_type;location;lat;lon;timestamp;temperature;humidity
3281;DHT22;1652;51.318;6.202;2022-11-15T00:00:57;9.00;99.90
3281;DHT22;1652;51.318;6.202;2022-11-15T00:03:26;9.00;99.90
3281;DHT22;1652;51.318;6.202;2022-11-15T00:05:53;9.00;99.90
3281;DHT22;1652;51.318;6.202;2022-11-15T00:08:20;8.90;99.90
3281;DHT22;1652;51.318;6.202;2022-11-15T00:10:57;8.90;99.90
3281;DHT22;1652;51.318;6.202;2022-11-15T00:13:25;9.00;99.90
3281;DHT22;1652;51.318;6.202;2022-11-15T00:15:58;9.00;99.90
3281;DHT22;1652;51.318;6.202;2022-11-15T00:18:26;9.00;99.90
3281;DHT22;1652;51.318;6.202;2022-11-15T00:20:52;9.00;99.90
3281;DHT22;1652;51.318;6.202;2022-11-15T00:23:20;9.00;99.90
3281;DHT22;1652;51.318;6.202;2022-11-15T00:25:46;8.90;99.90
3281;DHT22;1652;51.318;6.202;2022-11-15T00:28:13;8.90;99.90
3281;DHT22;1652;51.318;6.202;2022-11-15T00:30:43;8.90;99.90
3281;DHT22;1652;51.318;6.202;2022-11-15T00:33:10;8.90;99.90
3281;DHT22;1652;51.318;6.202;2022-11-15T00:35:37;8.90;99.90
3281;DHT22;1652;51.318;6.202;2022-11-15T00:38:04;8.90;99.90
3281;DHT22;1652;51.318;6.202;2022-11-15T00:40:31;8.90;99.90
3281;DHT22;1652;51.318;6.202;2022-11-15T00:42:58;8.90;99.90
3281;DHT22;1652;51.318;6.202;2022-11-15T00:45:25;8.90;99.90
3281;DHT22;1652;51.318;6.202;2022-11-15T00:47:56;8.90;99.90
3281;DHT22;1652;51.318;6.202;2022-11-15T00:50:23;9.10;99.90
3281;DHT22;1652;51.318;6.202;2022-11-15T00:52:50;9.00;99.90
3281;DHT22;1652;51.318;6.202;2022-11-15T00:55:18;9.10;99.90
3281;DHT22;1652;51.318;6.202;2022-11-15T00:57:46;9.10;99.90
3281;DHT22;1652;51.318;6.202;2022-11-15T01:00:13;9.10;99.90
3281;DHT22;1652;51.318;6.202;2022-11-15T01:02:40;9.00;99.90
3281;DHT22;1652;51.318;6.202;2022-11-15T01:05:07;9.00;99.90
3281;DHT22;1652;51.318;6.202;2022-11-15T01:07:35;9.10;99.90
3281;DHT22;1652;51.318;6.202;2022-11-15T01:10:02;9.10;99.90
3281;DHT22;1652;51.318;6.202;2022-11-15T01:12:30;9.10;99.90
3281;DHT22;1652;51.318;6.202;2022-11-15T01:14:56;9.10;99.90
3281;DHT22;1652;51.318;6.202;2022-11-15T01:17:24;9.00;99.90
3281;DHT22;1652;51.318;6.202;2022-11-15T01:19:51;9.00;99.90
3281;DHT22;1652;51.318;6.202;2022-11-15T01:22:17;9.00;99.90
3281;DHT22;1652;51.318;6.202;2022-11-15T01:24:44;9.00;99.90
3281;DHT22;1652;51.318;6.202;2022-11-15T01:27:11;9.10;99.90
3281;DHT22;1652;51.318;6.202;2022-11-15T01:29:38;9.10;99.90
3281;DHT22;1652;51.318;6.202;2022-11-15T01:32:05;9.10;99.90
3281;DHT22;1652;51.318;6.202;2022-11-15T01:34:32;9.20;99.90
3281;DHT22;1652;51.318;6.202;2022-11-15T01:36:59;9.30;99.90
3281;DHT22;1652;51.318;6.202;2022-11-15T01:39:26;9.30;99.90
3281;DHT22;1652;51.318;6.202;2022-11-15T01:41:53;9.40;99.90
3281;DHT22;1652;51.318;6.202;2022-11-15T01:50:03;9.50;99.90
3281;DHT22;1652;51.318;6.202;2022-11-15T01:52:31;9.50;99.90
3281;DHT22;1652;51.318;6.202;2022-11-15T01:55:09;9.60;99.90
3281;DHT22;1652;51.318;6.202;2022-11-15T01:57:40;9.60;99.90
3281;DHT22;1652;51.318;6.202;2022-11-15T02:00:08;9.70;99.90
3281;DHT22;1652;51.318;6.202;2022-11-15T02:02:36;9.80;99.90
3281;DHT22;1652;51.318;6.202;2022-11-15T02:05:04;9.80;99.90
3281;DHT22;1652;51.318;6.202;2022-11-15T02:07:32;9.80;99.90
3281;DHT22;1652;51.318;6.202;2022-11-15T02:10:08;9.80;99.90
3281;DHT22;1652;51.318;6.202;2022-11-15T02:12:38;9.70;99.90
3281;DHT22;1652;51.318;6.202;2022-11-15T02:15:06;9.70;99.90
3281;DHT22;1652;51.318;6.202;2022-11-15T02:17:48;9.70;99.90
3281;DHT22;1652;51.318;6.202;2022-11-15T02:20:36;9.70;99.90
3281;DHT22;1652;51.318;6.202;2022-11-15T02:31:18;9.90;99.90
3281;DHT22;1652;51.318;6.202;2022-11-15T02:36:32;9.80;99.90
3281;DHT22;1652;51.318;6.202;2022-11-15T02:41:49;10.00;99.90
3281;DHT22;1652;51.318;6.202;2022-11-15T02:44:26;10.10;99.90
3281;DHT22;1652;51.318;6.202;2022-11-15T02:47:03;10.10;99.90
3281;DHT22;1652;51.318;6.202;2022-11-15T02:49:48;10.10;99.90
3281;DHT22;1652;51.318;6.202;2022-11-15T02:52:21;10.10;99.90
3281;DHT22;1652;51.318;6.202;2022-11-15T02:54:59;10.20;99.90
3281;DHT22;1652;51.318;6.202;2022-11-15T03:00:08;10.20;99.90
3281;DHT22;1652;51.318;6.202;2022-11-15T03:02:57;10.20;99.90
3281;DHT22;1652;51.318;6.202;2022-11-15T03:05:39;10.30;99.90
3281;DHT22;1652;51.318;6.202;2022-11-15T03:16:19;10.20;99.90
3281;DHT22;1652;51.318;6.202;2022-11-15T03:18:54;10.20;99.90
3281;DHT22;1652;51.318;6.202;2022-11-15T03:21:23;10.20;99.90
3281;DHT22;1652;51.318;6.202;2022-11-15T03:23:51;10.10;99.90
3281;DHT22;1652;51.318;6.202;2022-11-15T03:26:21;10.20;99.90
3281;DHT22;1652;51.318;6.202;2022-11-15T03:28:51;10.10;99.90
3281;DHT22;1652;51.318;6.202;2022-11-15T03:31:21;10.10;99.90
3281;DHT22;1652;51.318;6.202;2022-11-15T03:34:27;10.10;99.90
3281;DHT22;1652;51.318;6.202;2022-11-15T03:36:55;10.10;99.90
3281;DHT22;1652;51.318;6.202;2022-11-15T03:39:23;10.20;99.90
3281;DHT22;1652;51.318;6.202;2022-11-15T03:49:53;10.20;99.90
3281;DHT22;1652;51.318;6.202;2022-11-15T03:52:22;10.30;99.90
3281;DHT22;1652;51.318;6.202;2022-11-15T03:54:52;10.40;99.90
3281;DHT22;1652;51.318;6.202;2022-11-15T03:57:19;10.40;99.90
3281;DHT22;1652;51.318;6.202;2022-11-15T03:59:46;10.50;99.90
3281;DHT22;1652;51.318;6.202;2022-11-15T04:02:14;10.50;99.90
3281;DHT22;1652;51.318;6.202;2022-11-15T04:04:40;10.60;99.90
3281;DHT22;1652;51.318;6.202;2022-11-15T04:07:07;10.60;99.90
3281;DHT22;1652;51.318;6.202;2022-11-15T04:09:34;10.60;99.90
3281;DHT22;1652;51.318;6.202;2022-11-15T04:12:21;10.60;99.90
3281;DHT22;1652;51.318;6.202;2022-11-15T04:15:10;10.60;99.90
3281;DHT22;1652;51.318;6.202;2022-11-15T04:17:52;10.60;99.90
3281;DHT22;1652;51.318;6.202;2022-11-15T04:20:27;10.70;99.90
3281;DHT22;1652;51.318;6.202;2022-11-15T04:23:19;10.60;99.90
3281;DHT22;1652;51.318;6.202;2022-11-15T04:26:23;10.70;99.90
3281;DHT22;1652;51.318;6.202;2022-11-15T04:28:50;10.60;99.90
3281;DHT22;1652;51.318;6.202;2022-11-15T04:31:36;10.50;99.90
3281;DHT22;1652;51.318;6.202;2022-11-15T04:34:02;10.60;99.90
3281;DHT22;1652;51.318;6.202;2022-11-15T04:36:29;10.60;99.90
3281;DHT22;1652;51.318;6.202;2022-11-15T04:39:14;10.60;99.90
3281;DHT22;1652;51.318;6.202;2022-11-15T04:41:41;10.60;99.90
3281;DHT22;1652;51.318;6.202;2022-11-15T04:44:08;10.50;99.90
3281;DHT22;1652;51.318;6.202;2022-11-15T04:46:35;10.50;99.90
3281;DHT22;1652;51.318;6.202;2022-11-15T04:49:02;10.50;99.90
3281;DHT22;1652;51.318;6.202;2022-11-15T04:51:28;10.50;99.90
3281;DHT22;1652;51.318;6.202;2022-11-15T04:53:55;10.50;99.90
3281;DHT22;1652;51.318;6.202;2022-11-15T04:56:22;10.50;99.90
3281;DHT22;1652;51.318;6.202;2022-11-15T04:58:49;10.50;99.90
3281;DHT22;1652;51.318;6.202;2022-11-15T05:01:16;10.70;99.90
3281;DHT22;1652;51.318;6.202;2022-11-15T05:03:44;10.60;99.90
3281;DHT22;1652;51.318;6.202;2022-11-15T05:06:29;10.60;99.90
3281;DHT22;1652;51.318;6.202;2022-11-15T05:08:57;10.50;99.90
3281;DHT22;1652;51.318;6.202;2022-11-15T05:11:25;10.50;99.90
3281;DHT22;1652;51.318;6.202;2022-11-15T05:13:52;10.50;99.90
3281;DHT22;1652;51.318;6.202;2022-11-15T05:16:19;10.60;99.90
3281;DHT22;1652;51.318;6.202;2022-11-15T05:18:46;10.60;99.90
3281;DHT22;1652;51.318;6.202;2022-11-15T05:21:14;10.60;99.90
3281;DHT22;1652;51.318;6.202;2022-11-15T05:23:41;10.50;99.90
3281;DHT22;1652;51.318;6.202;2022-11-15T05:26:09;10.50;99.90
3281;DHT22;1652;51.318;6.202;2022-11-15T05:28:36;10.50;99.90
3281;DHT22;1652;51.318;6.202;2022-11-15T05:31:04;10.50;99.90
3281;DHT22;1652;51.318;6.202;2022-11-15T05:33:32;10.50;99.90
3281;DHT22;1652;51.318;6.202;2022-11-15T05:38:50;10.50;99.90
3281;DHT22;1652;51.318;6.202;2022-11-15T05:41:20;10.50;99.90
3281;DHT22;1652;51.318;6.202;2022-11-15T05:43:49;10.50;99.90
3281;DHT22;1652;51.318;6.202;2022-11-15T05:46:17;10.50;99.90
3281;DHT22;1652;51.318;6.202;2022-11-15T05:48:46;10.50;99.90
3281;DHT22;1652;51.318;6.202;2022-11-15T05:51:16;10.50;99.90
3281;DHT22;1652;51.318;6.202;2022-11-15T05:53:44;10.50;99.90
3281;DHT22;1652;51.318;6.202;2022-11-15T05:56:12;10.60;99.90
3281;DHT22;1652;51.318;6.202;2022-11-15T05:58:38;10.60;99.90
3281;DHT22;1652;51.318;6.202;2022-11-15T06:01:05;10.50;99.90
3281;DHT22;1652;51.318;6.202;2022-11-15T06:03:32;10.50;99.90
3281;DHT22;1652;51.318;6.202;2022-11-15T06:05:59;10.50;99.90
3281;DHT22;1652;51.318;6.202;2022-11-15T06:08:27;10.50;99.90
3281;DHT22;1652;51.318;6.202;2022-11-15T06:10:53;10.50;99.90
3281;DHT22;1652;51.318;6.202;2022-11-15T06:13:20;10.60;99.90
3281;DHT22;1652;51.318;6.202;2022-11-15T06:15:47;10.70;99.90
3281;DHT22;1652;51.318;6.202;2022-11-15T06:18:14;10.70;99.90
3281;DHT22;1652;51.318;6.202;2022-11-15T06:20:40;10.70;99.90
3281;DHT22;1652;51.318;6.202;2022-11-15T06:23:07;10.80;99.90
3281;DHT22;1652;51.318;6.202;2022-11-15T06:25:34;10.90;99.90
3281;DHT22;1652;51.318;6.202;2022-11-15T06:28:00;11.00;99.90
3281;DHT22;1652;51.318;6.202;2022-11-15T06:30:27;11.00;99.90
3281;DHT22;1652;51.318;6.202;2022-11-15T06:33:02;11.00;99.90
3281;DHT22;1652;51.318;6.202;2022-11-15T06:35:30;11.00;99.90
3281;DHT22;1652;51.318;6.202;2022-11-15T06:40:27;11.00;99.90
3281;DHT22;1652;51.318;6.202;2022-11-15T06:42:59;10.90;99.90
3281;DHT22;1652;51.318;6.202;2022-11-15T06:45:26;11.00;99.90
3281;DHT22;1652;51.318;6.202;2022-11-15T06:47:53;11.10;99.90
3281;DHT22;1652;51.318;6.202;2022-11-15T06:50:20;11.20;99.90
3281;DHT22;1652;51.318;6.202;2022-11-15T06:52:47;11.30;99.90
3281;DHT22;1652;51.318;6.202;2022-11-15T06:55:14;11.30;99.90
3281;DHT22;1652;51.318;6.202;2022-11-15T06:57:51;11.20;99.90
3281;DHT22;1652;51.318;6.202;2022-11-15T07:00:20;11.20;99.90
3281;DHT22;1652;51.318;6.202;2022-11-15T07:02:48;11.10;99.90
3281;DHT22;1652;51.318;6.202;2022-11-15T07:05:15;11.10;99.90
3281;DHT22;1652;51.318;6.202;2022-11-15T07:07:42;11.20;99.90
3281;DHT22;1652;51.318;6.202;2022-11-15T07:10:09;11.10;99.90
3281;DHT22;1652;51.318;6.202;2022-11-15T07:12:36;11.10;99.90
3281;DHT22;1652;51.318;6.202;2022-11-15T07:15:03;11.10;99.90
3281;DHT22;1652;51.318;6.202;2022-11-15T07:17:30;11.00;99.90
3281;DHT22;1652;51.318;6.202;2022-11-15T07:19:57;11.00;99.90
3281;DHT22;1652;51.318;6.202;2022-11-15T07:22:24;11.00;99.90
3281;DHT22;1652;51.318;6.202;2022-11-15T07:24:50;10.90;99.90
3281;DHT22;1652;51.318;6.202;2022-11-15T07:27:17;10.90;99.90
3281;DHT22;1652;51.318;6.202;2022-11-15T07:29:44;11.00;99.90
3281;DHT22;1652;51.318;6.202;2022-11-15T07:32:11;11.00;99.90
3281;DHT22;1652;51.318;6.202;2022-11-15T07:34:38;11.00;99.90
3281;DHT22;1652;51.318;6.202;2022-11-15T07:37:04;11.00;99.90
3281;DHT22;1652;51.318;6.202;2022-11-15T07:39:31;11.00;99.90
3281;DHT22;1652;51.318;6.202;2022-11-15T07:41:59;10.90;99.90
3281;DHT22;1652;51.318;6.202;2022-11-15T07:44:44;10.90;99.90
3281;DHT22;1652;51.318;6.202;2022-11-15T07:47:11;11.00;99.90
3281;DHT22;1652;51.318;6.202;2022-11-15T07:49:38;11.00;99.90
3281;DHT22;1652;51.318;6.202;2022-11-15T07:52:05;11.00;99.90
3281;DHT22;1652;51.318;6.202;2022-11-15T07:54:31;11.00;99.90
3281;DHT22;1652;51.318;6.202;2022-11-15T07:56:58;11.00;99.90
3281;DHT22;1652;51.318;6.202;2022-11-15T07:59:33;11.10;99.90
3281;DHT22;1652;51.318;6.202;2022-11-15T08:02:01;11.10;99.90
3281;DHT22;1652;51.318;6.202;2022-11-15T08:04:28;11.00;99.90
3281;DHT22;1652;51.318;6.202;2022-11-15T08:06:55;11.10;99.90
3281;DHT22;1652;51.318;6.202;2022-11-15T08:09:22;11.10;99.90
3281;DHT22;1652;51.318;6.202;2022-11-15T08:11:48;11.10;99.90
3281;DHT22;1652;51.318;6.202;2022-11-15T08:14:15;11.10;99.90
3281;DHT22;1652;51.318;6.202;2022-11-15T08:16:42;11.10;99.90
3281;DHT22;1652;51.318;6.202;2022-11-15T08:19:08;11.00;99.90
3281;DHT22;1652;51.318;6.202;2022-11-15T08:21:35;11.20;99.90
3281;DHT22;1652;51.318;6.202;2022-11-15T08:24:04;11.20;99.90
3281;DHT22;1652;51.318;6.202;2022-11-15T08:26:31;11.30;99.90
3281;DHT22;1652;51.318;6.202;2022-11-15T08:28:57;11.30;99.90
3281;DHT22;1652;51.318;6.202;2022-11-15T08:31:24;11.30;99.90
3281;DHT22;1652;51.318;6.202;2022-11-15T08:33:51;11.30;99.90
3281;DHT22;1652;51.318;6.202;2022-11-15T08:36:18;11.40;99.90
3281;DHT22;1652;51.318;6.202;2022-11-15T08:38:45;11.40;99.90
3281;DHT22;1652;51.318;6.202;2022-11-15T08:41:41;11.50;99.90
3281;DHT22;1652;51.318;6.202;2022-11-15T08:44:08;11.60;99.90
3281;DHT22;1652;51.318;6.202;2022-11-15T08:46:34;11.60;99.90
3281;DHT22;1652;51.318;6.202;2022-11-15T08:49:01;11.70;99.90
3281;DHT22;1652;51.318;6.202;2022-11-15T08:51:28;11.80;99.90
3281;DHT22;1652;51.318;6.202;2022-11-15T08:53:55;11.80;99.90
3281;DHT22;1652;51.318;6.202;2022-11-15T08:56:21;12.00;99.90
3281;DHT22;1652;51.318;6.202;2022-11-15T08:58:48;12.00;99.90
3281;DHT22;1652;51.318;6.202;2022-11-15T09:01:19;12.20;99.90
3281;DHT22;1652;51.318;6.202;2022-11-15T09:03:46;12.10;99.90
3281;DHT22;1652;51.318;6.202;2022-11-15T09:06:13;12.10;99.90
3281;DHT22;1652;51.318;6.202;2022-11-15T09:08:41;12.10;99.90
3281;DHT22;1652;51.318;6.202;2022-11-15T09:11:15;12.10;99.90
3281;DHT22;1652;51.318;6.202;2022-11-15T09:13:44;12.10;99.90
3281;DHT22;1652;51.318;6.202;2022-11-15T09:16:11;12.10;99.90
3281;DHT22;1652;51.318;6.202;2022-11-15T09:18:39;12.00;99.90
3281;DHT22;1652;51.318;6.202;2022-11-15T09:21:05;12.00;99.90
3281;DHT22;1652;51.318;6.202;2022-11-15T09:23:33;12.00;99.90
3281;DHT22;1652;51.318;6.202;2022-11-15T09:26:01;12.00;99.90
3281;DHT22;1652;51.318;6.202;2022-11-15T09:28:29;11.90;99.90
3281;DHT22;1652;51.318;6.202;2022-11-15T09:30:58;12.00;99.90
3281;DHT22;1652;51.318;6.202;2022-11-15T09:33:26;12.00;99.90
3281;DHT22;1652;51.318;6.202;2022-11-15T09:35:53;12.00;99.90
3281;DHT22;1652;51.318;6.202;2022-11-15T09:38:20;12.00;99.90
3281;DHT22;1652;51.318;6.202;2022-11-15T09:40:55;12.00;99.90
3281;DHT22;1652;51.318;6.202;2022-11-15T09:46:28;12.00;99.90
3281;DHT22;1652;51.318;6.202;2022-11-15T09:49:00;12.00;99.90
3281;DHT22;1652;51.318;6.202;2022-11-15T09:51:31;11.90;99.90
3281;DHT22;1652;51.318;6.202;2022-11-15T09:56:53;12.10;99.90
3281;DHT22;1652;51.318;6.202;2022-11-15T10:03:18;12.10;99.90
3281;DHT22;1652;51.318;6.202;2022-11-15T10:05:48;12.10;99.90
3281;DHT22;1652;51.318;6.202;2022-11-15T10:08:37;12.10;99.90
3281;DHT22;1652;51.318;6.202;2022-11-15T10:11:15;12.20;99.90
3281;DHT22;1652;51.318;6.202;2022-11-15T10:14:22;12.30;99.90
3281;DHT22;1652;51.318;6.202;2022-11-15T10:24:28;12.10;99.90
3281;DHT22;1652;51.318;6.202;2022-11-15T10:27:00;12.10;99.90
3281;DHT22;1652;51.318;6.202;2022-11-15T10:29:26;12.20;99.90
3281;DHT22;1652;51.318;6.202;2022-11-15T10:31:53;12.30;99.90
3281;DHT22;1652;51.318;6.202;2022-11-15T10:34:22;12.20;99.90
3281;DHT22;1652;51.318;6.202;2022-11-15T10:36:57;12.20;99.90
3281;DHT22;1652;51.318;6.202;2022-11-15T10:39:25;12.30;99.90
3281;DHT22;1652;51.318;6.202;2022-11-15T10:41:52;12.20;99.90
3281;DHT22;1652;51.318;6.202;2022-11-15T10:44:23;12.40;99.90
3281;DHT22;1652;51.318;6.202;2022-11-15T10:52:00;12.40;99.90
3281;DHT22;1652;51.318;6.202;2022-11-15T10:54:31;12.50;99.90
3281;DHT22;1652;51.318;6.202;2022-11-15T10:57:04;12.50;99.90
3281;DHT22;1652;51.318;6.202;2022-11-15T10:59:33;12.50;99.90
3281;DHT22;1652;51.318;6.202;2022-11-15T11:02:37;12.60;99.90
3281;DHT22;1652;51.318;6.202;2022-11-15T11:05:25;12.60;99.30
3281;DHT22;1652;51.318;6.202;2022-11-15T11:07:58;12.60;99.90
3281;DHT22;1652;51.318;6.202;2022-11-15T11:10:25;12.60;99.90
3281;DHT22;1652;51.318;6.202;2022-11-15T11:19:04;12.60;92.50
3281;DHT22;1652;51.318;6.202;2022-11-15T11:22:01;12.70;41.80
3281;DHT22;1652;51.318;6.202;2022-11-15T11:27:21;12.60;1.00
3281;DHT22;1652;51.318;6.202;2022-11-15T11:41:06;12.90;1.00
3281;DHT22;1652;51.318;6.202;2022-11-15T11:49:10;13.00;1.00
3281;DHT22;1652;51.318;6.202;2022-11-15T11:51:47;13.00;1.00
3281;DHT22;1652;51.318;6.202;2022-11-15T11:54:32;13.10;1.00
3281;DHT22;1652;51.318;6.202;2022-11-15T11:57:09;13.10;1.00
3281;DHT22;1652;51.318;6.202;2022-11-15T11:59:43;13.10;1.00
3281;DHT22;1652;51.318;6.202;2022-11-15T12:02:27;13.10;1.00
3281;DHT22;1652;51.318;6.202;2022-11-15T12:05:26;13.20;1.00
3281;DHT22;1652;51.318;6.202;2022-11-15T12:07:49;13.20;1.00
3281;DHT22;1652;51.318;6.202;2022-11-15T12:10:25;13.20;1.00
3281;DHT22;1652;51.318;6.202;2022-11-15T12:13:06;13.20;1.00
3281;DHT22;1652;51.318;6.202;2022-11-15T12:15:45;13.20;1.00
3281;DHT22;1652;51.318;6.202;2022-11-15T12:18:15;13.30;1.00
3281;DHT22;1652;51.318;6.202;2022-11-15T12:20:56;13.30;1.00
3281;DHT22;1652;51.318;6.202;2022-11-15T12:23:31;13.30;1.00
3281;DHT22;1652;51.318;6.202;2022-11-15T12:26:06;13.40;1.00
3281;DHT22;1652;51.318;6.202;2022-11-15T12:28:47;13.40;1.00
3281;DHT22;1652;51.318;6.202;2022-11-15T12:31:47;13.40;1.00
3281;DHT22;1652;51.318;6.202;2022-11-15T12:36:50;13.50;1.00
3281;DHT22;1652;51.318;6.202;2022-11-15T12:39:18;13.50;1.00
3281;DHT22;1652;51.318;6.202;2022-11-15T13:17:49;13.60;1.00
3281;DHT22;1652;51.318;6.202;2022-11-15T13:22:47;13.60;1.00
3281;DHT22;1652;51.318;6.202;2022-11-15T13:30:37;13.40;1.00
3281;DHT22;1652;51.318;6.202;2022-11-15T13:33:13;13.50;1.00
3281;DHT22;1652;51.318;6.202;2022-11-15T13:35:45;13.50;1.00
3281;DHT22;1652;51.318;6.202;2022-11-15T13:38:26;13.60;1.00
3281;DHT22;1652;51.318;6.202;2022-11-15T13:40:54;13.60;1.00
3281;DHT22;1652;51.318;6.202;2022-11-15T13:46:20;13.60;1.00
3281;DHT22;1652;51.318;6.202;2022-11-15T13:48:57;13.60;1.00
3281;DHT22;1652;51.318;6.202;2022-11-15T13:51:50;13.50;1.00
3281;DHT22;1652;51.318;6.202;2022-11-15T13:54:30;13.50;1.00
3281;DHT22;1652;51.318;6.202;2022-11-15T13:57:09;13.40;1.00
3281;DHT22;1652;51.318;6.202;2022-11-15T13:59:48;13.40;1.00
3281;DHT22;1652;51.318;6.202;2022-11-15T14:02:17;13.40;1.00
3281;DHT22;1652;51.318;6.202;2022-11-15T14:04:51;13.50;1.00
3281;DHT22;1652;51.318;6.202;2022-11-15T14:07:22;13.60;1.00
3281;DHT22;1652;51.318;6.202;2022-11-15T14:09:49;13.60;1.00
3281;DHT22;1652;51.318;6.202;2022-11-15T14:14:51;13.60;1.00
3281;DHT22;1652;51.318;6.202;2022-11-15T14:19:57;13.50;1.00
3281;DHT22;1652;51.318;6.202;2022-11-15T14:22:26;13.50;1.00
3281;DHT22;1652;51.318;6.202;2022-11-15T14:25:18;13.50;1.00
3281;DHT22;1652;51.318;6.202;2022-11-15T14:28:50;13.40;1.00
3281;DHT22;1652;51.318;6.202;2022-11-15T14:30:53;13.50;1.00
3281;DHT22;1652;51.318;6.202;2022-11-15T14:35:52;13.40;1.00
3281;DHT22;1652;51.318;6.202;2022-11-15T14:38:19;13.40;6.00
3281;DHT22;1652;51.318;6.202;2022-11-15T14:40:46;13.40;12.10
3281;DHT22;1652;51.318;6.202;2022-11-15T14:43:13;13.40;23.60
3281;DHT22;1652;51.318;6.202;2022-11-15T14:45:40;13.40;21.40
3281;DHT22;1652;51.318;6.202;2022-11-15T14:48:07;13.40;23.50
3281;DHT22;1652;51.318;6.202;2022-11-15T14:50:35;13.40;31.80
3281;DHT22;1652;51.318;6.202;2022-11-15T14:53:02;13.50;37.20
3281;DHT22;1652;51.318;6.202;2022-11-15T14:55:32;13.40;43.20
3281;DHT22;1652;51.318;6.202;2022-11-15T14:58:05;13.40;53.40
3281;DHT22;1652;51.318;6.202;2022-11-15T15:00:38;13.40;48.10
3281;DHT22;1652;51.318;6.202;2022-11-15T15:03:06;13.40;52.90
3281;DHT22;1652;51.318;6.202;2022-11-15T15:05:36;13.40;56.70
3281;DHT22;1652;51.318;6.202;2022-11-15T15:08:05;13.40;59.80
3281;DHT22;1652;51.318;6.202;2022-11-15T15:10:35;13.50;53.90
3281;DHT22;1652;51.318;6.202;2022-11-15T15:13:19;13.40;49.10
3281;DHT22;1652;51.318;6.202;2022-11-15T15:15:47;13.50;51.60
3281;DHT22;1652;51.318;6.202;2022-11-15T15:18:14;13.40;47.30
3281;DHT22;1652;51.318;6.202;2022-11-15T15:20:43;13.40;46.80
3281;DHT22;1652;51.318;6.202;2022-11-15T15:23:19;13.40;57.90
3281;DHT22;1652;51.318;6.202;2022-11-15T15:25:47;13.40;54.20
3281;DHT22;1652;51.318;6.202;2022-11-15T15:28:15;13.30;58.60
3281;DHT22;1652;51.318;6.202;2022-11-15T15:30:42;13.40;52.20
3281;DHT22;1652;51.318;6.202;2022-11-15T15:33:10;13.40;56.60
3281;DHT22;1652;51.318;6.202;2022-11-15T15:35:36;13.30;62.60
3281;DHT22;1652;51.318;6.202;2022-11-15T15:38:04;13.30;63.30
3281;DHT22;1652;51.318;6.202;2022-11-15T15:40:32;13.20;71.50
3281;DHT22;1652;51.318;6.202;2022-11-15T15:42:59;13.30;78.70
3281;DHT22;1652;51.318;6.202;2022-11-15T15:45:27;13.30;73.30
3281;DHT22;1652;51.318;6.202;2022-11-15T15:47:54;13.30;72.20
3281;DHT22;1652;51.318;6.202;2022-11-15T15:50:27;13.20;74.00
3281;DHT22;1652;51.318;6.202;2022-11-15T15:52:57;13.20;73.10
3281;DHT22;1652;51.318;6.202;2022-11-15T15:55:24;13.20;75.50
3281;DHT22;1652;51.318;6.202;2022-11-15T15:57:51;13.20;81.20
3281;DHT22;1652;51.318;6.202;2022-11-15T16:00:19;13.20;77.10
3281;DHT22;1652;51.318;6.202;2022-11-15T16:02:46;13.20;75.50
3281;DHT22;1652;51.318;6.202;2022-11-15T16:05:13;13.20;78.90
3281;DHT22;1652;51.318;6.202;2022-11-15T16:07:40;13.20;76.50
3281;DHT22;1652;51.318;6.202;2022-11-15T16:10:28;13.20;77.60
3281;DHT22;1652;51.318;6.202;2022-11-15T16:12:56;13.20;73.90
3281;DHT22;1652;51.318;6.202;2022-11-15T16:15:24;13.20;80.30
3281;DHT22;1652;51.318;6.202;2022-11-15T16:17:53;13.20;83.80
3281;DHT22;1652;51.318;6.202;2022-11-15T16:20:36;13.20;82.60
3281;DHT22;1652;51.318;6.202;2022-11-15T16:23:06;13.20;83.50
3281;DHT22;1652;51.318;6.202;2022-11-15T16:25:48;13.20;89.60
3281;DHT22;1652;51.318;6.202;2022-11-15T16:28:21;13.10;92.00
3281;DHT22;1652;51.318;6.202;2022-11-15T16:30:49;13.10;91.40
3281;DHT22;1652;51.318;6.202;2022-11-15T16:33:22;13.10;94.00
3281;DHT22;1652;51.318;6.202;2022-11-15T16:35:49;13.00;97.10
3281;DHT22;1652;51.318;6.202;2022-11-15T16:38:16;13.00;95.30
3281;DHT22;1652;51.318;6.202;2022-11-15T16:40:44;12.90;99.00
3281;DHT22;1652;51.318;6.202;2022-11-15T16:43:10;12.90;97.10
3281;DHT22;1652;51.318;6.202;2022-11-15T16:45:37;13.00;96.40
3281;DHT22;1652;51.318;6.202;2022-11-15T16:48:04;13.00;97.10
3281;DHT22;1652;51.318;6.202;2022-11-15T16:50:33;13.00;99.90
3281;DHT22;1652;51.318;6.202;2022-11-15T16:53:06;12.90;99.90
3281;DHT22;1652;51.318;6.202;2022-11-15T16:55:33;12.90;99.90
3281;DHT22;1652;51.318;6.202;2022-11-15T16:57:59;12.80;99.90
3281;DHT22;1652;51.318;6.202;2022-11-15T17:00:27;12.80;99.90
3281;DHT22;1652;51.318;6.202;2022-11-15T17:02:54;12.70;99.90
3281;DHT22;1652;51.318;6.202;2022-11-15T17:05:23;12.70;99.90
3281;DHT22;1652;51.318;6.202;2022-11-15T17:07:50;12.70;99.90
3281;DHT22;1652;51.318;6.202;2022-11-15T17:10:22;12.60;99.90
3281;DHT22;1652;51.318;6.202;2022-11-15T17:12:49;12.60;99.90
3281;DHT22;1652;51.318;6.202;2022-11-15T17:15:17;12.60;99.90
3281;DHT22;1652;51.318;6.202;2022-11-15T17:17:44;12.50;99.90
3281;DHT22;1652;51.318;6.202;2022-11-15T17:20:17;12.50;99.90
3281;DHT22;1652;51.318;6.202;2022-11-15T17:22:44;12.50;99.90
3281;DHT22;1652;51.318;6.202;2022-11-15T17:25:13;12.50;99.90
3281;DHT22;1652;51.318;6.202;2022-11-15T17:27:40;12.40;99.90
3281;DHT22;1652;51.318;6.202;2022-11-15T17:30:10;12.40;99.90
3281;DHT22;1652;51.318;6.202;2022-11-15T17:32:38;12.30;99.90
3281;DHT22;1652;51.318;6.202;2022-11-15T17:35:05;12.20;99.90
3281;DHT22;1652;51.318;6.202;2022-11-15T17:40:19;12.20;99.90
3281;DHT22;1652;51.318;6.202;2022-11-15T17:42:45;12.20;99.90
3281;DHT22;1652;51.318;6.202;2022-11-15T17:45:13;12.10;99.90
3281;DHT22;1652;51.318;6.202;2022-11-15T17:47:40;12.10;99.90
3281;DHT22;1652;51.318;6.202;2022-11-15T17:50:07;12.00;99.90
3281;DHT22;1652;51.318;6.202;2022-11-15T17:52:34;12.00;99.90
3281;DHT22;1652;51.318;6.202;2022-11-15T17:55:01;11.90;99.90
3281;DHT22;1652;51.318;6.202;2022-11-15T17:57:28;11.90;99.90
3281;DHT22;1652;51.318;6.202;2022-11-15T17:59:55;11.80;99.90
3281;DHT22;1652;51.318;6.202;2022-11-15T18:02:22;11.80;99.90
3281;DHT22;1652;51.318;6.202;2022-11-15T18:04:48;11.80;99.90
3281;DHT22;1652;51.318;6.202;2022-11-15T18:07:15;11.70;99.90
3281;DHT22;1652;51.318;6.202;2022-11-15T18:09:42;11.70;99.90
3281;DHT22;1652;51.318;6.202;2022-11-15T18:12:10;11.60;99.90
3281;DHT22;1652;51.318;6.202;2022-11-15T18:14:37;11.60;99.90
3281;DHT22;1652;51.318;6.202;2022-11-15T18:17:04;11.60;99.90
3281;DHT22;1652;51.318;6.202;2022-11-15T18:19:30;11.60;99.90
3281;DHT22;1652;51.318;6.202;2022-11-15T18:21:57;11.60;99.90
3281;DHT22;1652;51.318;6.202;2022-11-15T18:24:34;11.60;99.90
3281;DHT22;1652;51.318;6.202;2022-11-15T18:27:04;11.50;99.90
3281;DHT22;1652;51.318;6.202;2022-11-15T18:29:31;11.50;99.90
3281;DHT22;1652;51.318;6.202;2022-11-15T18:32:00;11.50;99.90
3281;DHT22;1652;51.318;6.202;2022-11-15T18:34:30;11.50;99.90
3281;DHT22;1652;51.318;6.202;2022-11-15T18:37:00;11.50;99.90
3281;DHT22;1652;51.318;6.202;2022-11-15T18:39:28;11.50;99.90
3281;DHT22;1652;51.318;6.202;2022-11-15T18:41:55;11.50;99.90
3281;DHT22;1652;51.318;6.202;2022-11-15T18:44:22;11.50;99.90
3281;DHT22;1652;51.318;6.202;2022-11-15T18:46:49;11.50;99.90
3281;DHT22;1652;51.318;6.202;2022-11-15T18:49:16;11.50;99.90
3281;DHT22;1652;51.318;6.202;2022-11-15T18:51:45;11.50;99.90
3281;DHT22;1652;51.318;6.202;2022-11-15T18:54:14;11.40;99.90
3281;DHT22;1652;51.318;6.202;2022-11-15T18:56:42;11.50;99.90